sensor_id;sensor_type;location;lat;lon;timestamp;temperature;humidity
21312;DHT22;18076;52.154;10.570;2022-08-20T00:00:45;20.10;99.90
21312;DHT22;18076;52.154;10.570;2022-08-20T00:03:18;20.00;99.90
21312;DHT22;18076;52.154;10.570;2022-08-20T00:05:46;20.00;99.90
21312;DHT22;18076;52.154;10.570;2022-08-20T00:08:12;20.00;99.90
21312;DHT22;18076;52.154;10.570;2022-08-20T00:10:40;20.00;99.90
21312;DHT22;18076;52.154;10.570;2022-08-20T00:13:06;19.90;99.90
21312;DHT22;18076;52.154;10.570;2022-08-20T00:15:33;19.80;99.90
21312;DHT22;18076;52.154;10.570;2022-08-20T00:17:59;19.80;99.90
21312;DHT22;18076;52.154;10.570;2022-08-20T00:20:26;19.70;99.90
21312;DHT22;18076;52.154;10.570;2022-08-20T00:22:53;19.60;99.90
21312;DHT22;18076;52.154;10.570;2022-08-20T00:25:19;19.60;99.90
21312;DHT22;18076;52.154;10.570;2022-08-20T00:27:45;19.40;99.90
21312;DHT22;18076;52.154;10.570;2022-08-20T00:30:11;19.40;99.90
21312;DHT22;18076;52.154;10.570;2022-08-20T00:32:56;19.40;99.90
21312;DHT22;18076;52.154;10.570;2022-08-20T00:35:23;19.40;99.90
21312;DHT22;18076;52.154;10.570;2022-08-20T00:37:49;19.40;99.90
21312;DHT22;18076;52.154;10.570;2022-08-20T00:40:16;19.40;99.90
21312;DHT22;18076;52.154;10.570;2022-08-20T00:42:43;19.30;99.90
21312;DHT22;18076;52.154;10.570;2022-08-20T00:45:09;19.30;99.90
21312;DHT22;18076;52.154;10.570;2022-08-20T00:47:35;19.30;99.90
21312;DHT22;18076;52.154;10.570;2022-08-20T00:50:02;19.40;99.90
21312;DHT22;18076;52.154;10.570;2022-08-20T00:52:30;19.40;99.90
21312;DHT22;18076;52.154;10.570;2022-08-20T00:54:57;19.30;99.90
21312;DHT22;18076;52.154;10.570;2022-08-20T00:57:30;19.30;99.90
21312;DHT22;18076;52.154;10.570;2022-08-20T00:59:57;19.20;99.90
21312;DHT22;18076;52.154;10.570;2022-08-20T01:02:23;19.20;99.90
21312;DHT22;18076;52.154;10.570;2022-08-20T01:04:50;19.20;99.90
21312;DHT22;18076;52.154;10.570;2022-08-20T01:07:25;19.30;99.90
21312;DHT22;18076;52.154;10.570;2022-08-20T01:10:03;19.30;99.90
21312;DHT22;18076;52.154;10.570;2022-08-20T01:12:29;19.30;99.90
21312;DHT22;18076;52.154;10.570;2022-08-20T01:14:55;19.30;99.90
21312;DHT22;18076;52.154;10.570;2022-08-20T01:17:23;19.20;99.90
21312;DHT22;18076;52.154;10.570;2022-08-20T01:20:06;19.20;99.90
21312;DHT22;18076;52.154;10.570;2022-08-20T01:22:44;19.20;99.90
21312;DHT22;18076;52.154;10.570;2022-08-20T01:28:13;19.20;99.90
21312;DHT22;18076;52.154;10.570;2022-08-20T01:30:40;19.20;99.90
21312;DHT22;18076;52.154;10.570;2022-08-20T01:33:06;19.20;99.90
21312;DHT22;18076;52.154;10.570;2022-08-20T01:35:36;19.20;99.90
21312;DHT22;18076;52.154;10.570;2022-08-20T01:38:02;19.10;99.90
21312;DHT22;18076;52.154;10.570;2022-08-20T01:40:41;19.20;99.90
21312;DHT22;18076;52.154;10.570;2022-08-20T01:43:09;19.20;99.90
21312;DHT22;18076;52.154;10.570;2022-08-20T01:45:34;19.30;99.90
21312;DHT22;18076;52.154;10.570;2022-08-20T01:48:01;19.20;99.90
21312;DHT22;18076;52.154;10.570;2022-08-20T01:50:28;19.20;99.90
21312;DHT22;18076;52.154;10.570;2022-08-20T01:53:00;19.10;99.90
21312;DHT22;18076;52.154;10.570;2022-08-20T01:55:29;19.10;99.90
21312;DHT22;18076;52.154;10.570;2022-08-20T01:57:54;19.10;99.90
21312;DHT22;18076;52.154;10.570;2022-08-20T02:00:20;19.20;99.90
21312;DHT22;18076;52.154;10.570;2022-08-20T02:02:46;19.30;99.90
21312;DHT22;18076;52.154;10.570;2022-08-20T02:05:12;19.30;99.90
21312;DHT22;18076;52.154;10.570;2022-08-20T02:07:37;19.20;99.90
21312;DHT22;18076;52.154;10.570;2022-08-20T02:10:04;19.20;99.90
21312;DHT22;18076;52.154;10.570;2022-08-20T02:12:30;19.20;99.90
21312;DHT22;18076;52.154;10.570;2022-08-20T02:14:55;19.20;99.90
21312;DHT22;18076;52.154;10.570;2022-08-20T02:17:22;19.20;99.90
21312;DHT22;18076;52.154;10.570;2022-08-20T02:19:50;19.10;99.90
21312;DHT22;18076;52.154;10.570;2022-08-20T02:22:20;19.10;99.90
21312;DHT22;18076;52.154;10.570;2022-08-20T02:24:46;19.10;99.90
21312;DHT22;18076;52.154;10.570;2022-08-20T02:27:11;19.00;99.90
21312;DHT22;18076;52.154;10.570;2022-08-20T02:29:37;19.00;99.90
21312;DHT22;18076;52.154;10.570;2022-08-20T02:32:03;19.10;99.90
21312;DHT22;18076;52.154;10.570;2022-08-20T02:34:30;19.00;99.90
21312;DHT22;18076;52.154;10.570;2022-08-20T02:36:56;19.10;99.90
21312;DHT22;18076;52.154;10.570;2022-08-20T02:39:21;19.10;99.90
21312;DHT22;18076;52.154;10.570;2022-08-20T02:41:47;19.20;99.90
21312;DHT22;18076;52.154;10.570;2022-08-20T02:44:14;19.20;99.90
21312;DHT22;18076;52.154;10.570;2022-08-20T02:46:42;19.20;99.90
21312;DHT22;18076;52.154;10.570;2022-08-20T02:49:07;19.20;99.90
21312;DHT22;18076;52.154;10.570;2022-08-20T02:51:33;19.30;99.90
21312;DHT22;18076;52.154;10.570;2022-08-20T02:53:58;19.20;99.90
21312;DHT22;18076;52.154;10.570;2022-08-20T02:56:24;19.10;99.90
21312;DHT22;18076;52.154;10.570;2022-08-20T02:58:49;19.00;99.90
21312;DHT22;18076;52.154;10.570;2022-08-20T03:01:15;18.90;99.90
21312;DHT22;18076;52.154;10.570;2022-08-20T03:03:41;18.90;99.90
21312;DHT22;18076;52.154;10.570;2022-08-20T03:06:07;18.80;99.90
21312;DHT22;18076;52.154;10.570;2022-08-20T03:08:33;18.90;99.90
21312;DHT22;18076;52.154;10.570;2022-08-20T03:10:59;18.90;99.90
21312;DHT22;18076;52.154;10.570;2022-08-20T03:13:25;18.90;99.90
21312;DHT22;18076;52.154;10.570;2022-08-20T03:15:52;19.00;99.90
21312;DHT22;18076;52.154;10.570;2022-08-20T03:18:18;18.90;99.90
21312;DHT22;18076;52.154;10.570;2022-08-20T03:20:44;18.90;99.90
21312;DHT22;18076;52.154;10.570;2022-08-20T03:23:10;18.80;99.90
21312;DHT22;18076;52.154;10.570;2022-08-20T03:25:35;18.80;99.90
21312;DHT22;18076;52.154;10.570;2022-08-20T03:28:01;18.80;99.90
21312;DHT22;18076;52.154;10.570;2022-08-20T03:30:27;18.70;99.90
21312;DHT22;18076;52.154;10.570;2022-08-20T03:32:53;18.70;99.90
21312;DHT22;18076;52.154;10.570;2022-08-20T03:35:20;18.70;99.90
21312;DHT22;18076;52.154;10.570;2022-08-20T03:37:46;18.60;99.90
21312;DHT22;18076;52.154;10.570;2022-08-20T03:40:13;18.50;99.90
21312;DHT22;18076;52.154;10.570;2022-08-20T03:42:39;18.40;99.90
21312;DHT22;18076;52.154;10.570;2022-08-20T03:45:06;18.20;99.90
21312;DHT22;18076;52.154;10.570;2022-08-20T03:47:32;18.00;99.90
21312;DHT22;18076;52.154;10.570;2022-08-20T03:49:58;17.90;99.90
21312;DHT22;18076;52.154;10.570;2022-08-20T03:52:24;17.90;99.90
21312;DHT22;18076;52.154;10.570;2022-08-20T03:54:49;17.70;99.90
21312;DHT22;18076;52.154;10.570;2022-08-20T03:57:15;17.60;99.90
21312;DHT22;18076;52.154;10.570;2022-08-20T03:59:41;17.60;99.90
21312;DHT22;18076;52.154;10.570;2022-08-20T04:02:08;17.60;99.90
21312;DHT22;18076;52.154;10.570;2022-08-20T04:04:33;17.70;99.90
21312;DHT22;18076;52.154;10.570;2022-08-20T04:06:59;17.80;99.90
21312;DHT22;18076;52.154;10.570;2022-08-20T04:09:24;17.80;99.90
21312;DHT22;18076;52.154;10.570;2022-08-20T04:11:50;17.80;99.90
21312;DHT22;18076;52.154;10.570;2022-08-20T04:14:15;17.90;99.90
21312;DHT22;18076;52.154;10.570;2022-08-20T04:16:41;17.90;99.90
21312;DHT22;18076;52.154;10.570;2022-08-20T04:19:07;18.00;99.90
21312;DHT22;18076;52.154;10.570;2022-08-20T04:21:33;18.10;99.90
21312;DHT22;18076;52.154;10.570;2022-08-20T04:24:00;18.00;99.90
21312;DHT22;18076;52.154;10.570;2022-08-20T04:26:26;18.00;99.90
21312;DHT22;18076;52.154;10.570;2022-08-20T04:28:52;18.10;99.90
21312;DHT22;18076;52.154;10.570;2022-08-20T04:31:20;18.10;99.90
21312;DHT22;18076;52.154;10.570;2022-08-20T04:33:45;18.00;99.90
21312;DHT22;18076;52.154;10.570;2022-08-20T04:36:11;18.00;99.90
21312;DHT22;18076;52.154;10.570;2022-08-20T04:38:38;18.10;99.90
21312;DHT22;18076;52.154;10.570;2022-08-20T04:41:03;18.10;99.90
21312;DHT22;18076;52.154;10.570;2022-08-20T04:43:30;18.10;99.90
21312;DHT22;18076;52.154;10.570;2022-08-20T04:45:58;18.10;99.90
21312;DHT22;18076;52.154;10.570;2022-08-20T04:48:25;18.10;99.90
21312;DHT22;18076;52.154;10.570;2022-08-20T04:50:53;18.20;99.90
21312;DHT22;18076;52.154;10.570;2022-08-20T04:53:19;18.20;99.90
21312;DHT22;18076;52.154;10.570;2022-08-20T04:55:45;18.20;99.90
21312;DHT22;18076;52.154;10.570;2022-08-20T04:58:12;18.20;99.90
21312;DHT22;18076;52.154;10.570;2022-08-20T05:00:38;18.20;99.90
21312;DHT22;18076;52.154;10.570;2022-08-20T05:03:04;18.20;99.90
21312;DHT22;18076;52.154;10.570;2022-08-20T05:05:31;18.30;99.90
21312;DHT22;18076;52.154;10.570;2022-08-20T05:07:59;18.30;99.90
21312;DHT22;18076;52.154;10.570;2022-08-20T05:10:26;18.30;99.90
21312;DHT22;18076;52.154;10.570;2022-08-20T05:12:51;18.30;99.90
21312;DHT22;18076;52.154;10.570;2022-08-20T05:15:17;18.30;99.90
21312;DHT22;18076;52.154;10.570;2022-08-20T05:17:43;18.30;99.90
21312;DHT22;18076;52.154;10.570;2022-08-20T05:20:10;18.30;99.90
21312;DHT22;18076;52.154;10.570;2022-08-20T05:22:36;18.40;99.90
21312;DHT22;18076;52.154;10.570;2022-08-20T05:25:01;18.40;99.90
21312;DHT22;18076;52.154;10.570;2022-08-20T05:27:27;18.50;99.90
21312;DHT22;18076;52.154;10.570;2022-08-20T05:29:53;18.60;99.90
21312;DHT22;18076;52.154;10.570;2022-08-20T05:32:20;18.60;99.90
21312;DHT22;18076;52.154;10.570;2022-08-20T05:34:46;18.70;99.90
21312;DHT22;18076;52.154;10.570;2022-08-20T05:37:12;18.70;99.90
21312;DHT22;18076;52.154;10.570;2022-08-20T05:39:38;18.70;99.90
21312;DHT22;18076;52.154;10.570;2022-08-20T05:42:04;18.70;99.90
21312;DHT22;18076;52.154;10.570;2022-08-20T05:44:30;18.80;99.90
21312;DHT22;18076;52.154;10.570;2022-08-20T05:46:55;18.90;99.90
21312;DHT22;18076;52.154;10.570;2022-08-20T05:49:21;19.00;99.90
21312;DHT22;18076;52.154;10.570;2022-08-20T05:51:47;19.10;99.90
21312;DHT22;18076;52.154;10.570;2022-08-20T05:54:13;19.10;99.90
21312;DHT22;18076;52.154;10.570;2022-08-20T05:56:39;19.10;99.90
21312;DHT22;18076;52.154;10.570;2022-08-20T05:59:06;19.10;99.90
21312;DHT22;18076;52.154;10.570;2022-08-20T06:01:32;19.20;99.90
21312;DHT22;18076;52.154;10.570;2022-08-20T06:03:58;19.20;99.90
21312;DHT22;18076;52.154;10.570;2022-08-20T06:06:43;19.20;99.90
21312;DHT22;18076;52.154;10.570;2022-08-20T06:09:09;19.20;99.90
21312;DHT22;18076;52.154;10.570;2022-08-20T06:11:34;19.30;99.90
21312;DHT22;18076;52.154;10.570;2022-08-20T06:14:00;19.40;99.90
21312;DHT22;18076;52.154;10.570;2022-08-20T06:16:26;19.40;99.90
21312;DHT22;18076;52.154;10.570;2022-08-20T06:18:53;19.60;99.90
21312;DHT22;18076;52.154;10.570;2022-08-20T06:21:19;19.70;99.90
21312;DHT22;18076;52.154;10.570;2022-08-20T06:23:44;19.80;99.90
21312;DHT22;18076;52.154;10.570;2022-08-20T06:26:10;19.80;99.90
21312;DHT22;18076;52.154;10.570;2022-08-20T06:28:35;19.90;99.90
21312;DHT22;18076;52.154;10.570;2022-08-20T06:31:01;20.00;99.90
21312;DHT22;18076;52.154;10.570;2022-08-20T06:33:27;20.10;99.90
21312;DHT22;18076;52.154;10.570;2022-08-20T06:35:53;20.30;99.90
21312;DHT22;18076;52.154;10.570;2022-08-20T06:38:20;20.40;99.90
21312;DHT22;18076;52.154;10.570;2022-08-20T06:40:45;20.40;99.90
21312;DHT22;18076;52.154;10.570;2022-08-20T06:43:11;20.40;99.90
21312;DHT22;18076;52.154;10.570;2022-08-20T06:45:37;20.50;99.90
21312;DHT22;18076;52.154;10.570;2022-08-20T06:48:08;20.50;99.90
21312;DHT22;18076;52.154;10.570;2022-08-20T06:50:34;20.50;99.90
21312;DHT22;18076;52.154;10.570;2022-08-20T06:53:04;20.50;99.90
21312;DHT22;18076;52.154;10.570;2022-08-20T06:55:30;20.50;99.90
21312;DHT22;18076;52.154;10.570;2022-08-20T06:57:59;20.40;99.90
21312;DHT22;18076;52.154;10.570;2022-08-20T07:00:25;20.40;99.90
21312;DHT22;18076;52.154;10.570;2022-08-20T07:02:51;20.40;99.90
21312;DHT22;18076;52.154;10.570;2022-08-20T07:05:17;20.40;99.90
21312;DHT22;18076;52.154;10.570;2022-08-20T07:07:44;20.50;99.90
21312;DHT22;18076;52.154;10.570;2022-08-20T07:10:11;20.50;99.90
21312;DHT22;18076;52.154;10.570;2022-08-20T07:12:37;20.50;99.90
21312;DHT22;18076;52.154;10.570;2022-08-20T07:15:03;20.60;99.90
21312;DHT22;18076;52.154;10.570;2022-08-20T07:17:29;20.60;99.90
21312;DHT22;18076;52.154;10.570;2022-08-20T07:19:54;20.70;99.90
21312;DHT22;18076;52.154;10.570;2022-08-20T07:22:20;20.70;99.90
21312;DHT22;18076;52.154;10.570;2022-08-20T07:24:45;20.80;99.90
21312;DHT22;18076;52.154;10.570;2022-08-20T07:27:11;20.80;99.90
21312;DHT22;18076;52.154;10.570;2022-08-20T07:29:36;20.70;99.90
21312;DHT22;18076;52.154;10.570;2022-08-20T07:32:21;20.70;99.90
21312;DHT22;18076;52.154;10.570;2022-08-20T07:34:59;20.90;99.90
21312;DHT22;18076;52.154;10.570;2022-08-20T07:37:24;20.90;99.90
21312;DHT22;18076;52.154;10.570;2022-08-20T07:39:50;21.00;99.90
21312;DHT22;18076;52.154;10.570;2022-08-20T07:42:16;21.10;99.90
21312;DHT22;18076;52.154;10.570;2022-08-20T07:44:42;21.00;99.90
21312;DHT22;18076;52.154;10.570;2022-08-20T07:47:07;21.10;99.90
21312;DHT22;18076;52.154;10.570;2022-08-20T07:49:36;21.20;99.90
21312;DHT22;18076;52.154;10.570;2022-08-20T07:52:03;21.30;99.90
21312;DHT22;18076;52.154;10.570;2022-08-20T07:54:28;21.40;99.90
21312;DHT22;18076;52.154;10.570;2022-08-20T07:56:54;21.50;99.90
21312;DHT22;18076;52.154;10.570;2022-08-20T07:59:19;21.50;99.90
21312;DHT22;18076;52.154;10.570;2022-08-20T08:01:45;21.50;99.90
21312;DHT22;18076;52.154;10.570;2022-08-20T08:04:11;21.50;99.90
21312;DHT22;18076;52.154;10.570;2022-08-20T08:06:37;21.50;99.90
21312;DHT22;18076;52.154;10.570;2022-08-20T08:09:06;21.40;99.90
21312;DHT22;18076;52.154;10.570;2022-08-20T08:11:33;21.30;99.90
21312;DHT22;18076;52.154;10.570;2022-08-20T08:13:59;21.40;99.90
21312;DHT22;18076;52.154;10.570;2022-08-20T08:16:25;21.60;99.90
21312;DHT22;18076;52.154;10.570;2022-08-20T08:18:52;21.70;99.90
21312;DHT22;18076;52.154;10.570;2022-08-20T08:21:20;21.70;99.90
21312;DHT22;18076;52.154;10.570;2022-08-20T08:23:46;21.60;99.90
21312;DHT22;18076;52.154;10.570;2022-08-20T08:26:12;21.60;99.90
21312;DHT22;18076;52.154;10.570;2022-08-20T08:28:38;21.50;99.90
21312;DHT22;18076;52.154;10.570;2022-08-20T08:31:04;21.60;99.90
21312;DHT22;18076;52.154;10.570;2022-08-20T08:33:30;21.60;99.90
21312;DHT22;18076;52.154;10.570;2022-08-20T08:35:58;21.60;99.90
21312;DHT22;18076;52.154;10.570;2022-08-20T08:38:24;21.70;99.90
21312;DHT22;18076;52.154;10.570;2022-08-20T08:40:51;21.80;99.90
21312;DHT22;18076;52.154;10.570;2022-08-20T08:43:19;21.80;99.90
21312;DHT22;18076;52.154;10.570;2022-08-20T08:45:46;21.80;99.90
21312;DHT22;18076;52.154;10.570;2022-08-20T08:48:16;21.90;99.90
21312;DHT22;18076;52.154;10.570;2022-08-20T08:50:44;21.80;99.90
21312;DHT22;18076;52.154;10.570;2022-08-20T08:53:14;21.80;99.90
21312;DHT22;18076;52.154;10.570;2022-08-20T08:55:40;21.80;99.90
21312;DHT22;18076;52.154;10.570;2022-08-20T08:58:06;21.60;99.90
21312;DHT22;18076;52.154;10.570;2022-08-20T09:00:31;21.60;99.90
21312;DHT22;18076;52.154;10.570;2022-08-20T09:05:26;21.60;99.90
21312;DHT22;18076;52.154;10.570;2022-08-20T09:07:53;21.60;99.90
21312;DHT22;18076;52.154;10.570;2022-08-20T09:10:19;21.60;99.90
21312;DHT22;18076;52.154;10.570;2022-08-20T09:12:44;21.60;99.90
21312;DHT22;18076;52.154;10.570;2022-08-20T09:15:10;21.60;99.90
21312;DHT22;18076;52.154;10.570;2022-08-20T09:17:36;21.70;99.90
21312;DHT22;18076;52.154;10.570;2022-08-20T09:20:02;21.70;99.90
21312;DHT22;18076;52.154;10.570;2022-08-20T09:22:28;21.70;99.90
21312;DHT22;18076;52.154;10.570;2022-08-20T09:24:55;21.60;99.90
21312;DHT22;18076;52.154;10.570;2022-08-20T09:27:20;21.60;99.90
21312;DHT22;18076;52.154;10.570;2022-08-20T09:29:46;21.70;99.90
21312;DHT22;18076;52.154;10.570;2022-08-20T09:32:13;21.80;99.90
21312;DHT22;18076;52.154;10.570;2022-08-20T09:34:42;21.90;99.90
21312;DHT22;18076;52.154;10.570;2022-08-20T09:37:09;22.00;99.90
21312;DHT22;18076;52.154;10.570;2022-08-20T09:39:36;22.10;99.90
21312;DHT22;18076;52.154;10.570;2022-08-20T09:42:36;22.20;99.90
21312;DHT22;18076;52.154;10.570;2022-08-20T09:44:55;22.40;99.90
21312;DHT22;18076;52.154;10.570;2022-08-20T09:47:21;22.60;99.90
21312;DHT22;18076;52.154;10.570;2022-08-20T09:49:47;22.70;99.90
21312;DHT22;18076;52.154;10.570;2022-08-20T09:52:34;22.80;99.90
21312;DHT22;18076;52.154;10.570;2022-08-20T09:55:11;22.80;99.90
21312;DHT22;18076;52.154;10.570;2022-08-20T09:57:39;22.80;99.90
21312;DHT22;18076;52.154;10.570;2022-08-20T10:00:05;22.70;99.90
21312;DHT22;18076;52.154;10.570;2022-08-20T10:02:33;22.70;99.90
21312;DHT22;18076;52.154;10.570;2022-08-20T10:04:59;22.70;99.90
21312;DHT22;18076;52.154;10.570;2022-08-20T10:07:25;22.80;99.90
21312;DHT22;18076;52.154;10.570;2022-08-20T10:09:50;22.80;99.90
21312;DHT22;18076;52.154;10.570;2022-08-20T10:12:16;22.90;99.90
21312;DHT22;18076;52.154;10.570;2022-08-20T10:14:41;23.00;99.90
21312;DHT22;18076;52.154;10.570;2022-08-20T10:17:07;23.00;99.90
21312;DHT22;18076;52.154;10.570;2022-08-20T10:19:33;23.20;99.90
21312;DHT22;18076;52.154;10.570;2022-08-20T10:21:58;23.30;99.90
21312;DHT22;18076;52.154;10.570;2022-08-20T10:24:24;23.40;99.90
21312;DHT22;18076;52.154;10.570;2022-08-20T10:26:52;23.40;99.90
21312;DHT22;18076;52.154;10.570;2022-08-20T10:29:18;23.60;99.90
21312;DHT22;18076;52.154;10.570;2022-08-20T10:31:44;23.50;99.90
21312;DHT22;18076;52.154;10.570;2022-08-20T10:34:09;23.60;99.90
21312;DHT22;18076;52.154;10.570;2022-08-20T10:36:35;23.70;99.90
21312;DHT22;18076;52.154;10.570;2022-08-20T10:39:00;23.70;99.90
21312;DHT22;18076;52.154;10.570;2022-08-20T10:41:26;23.60;99.90
21312;DHT22;18076;52.154;10.570;2022-08-20T10:43:52;23.70;99.90
21312;DHT22;18076;52.154;10.570;2022-08-20T10:46:18;23.90;99.90
21312;DHT22;18076;52.154;10.570;2022-08-20T10:48:43;24.00;99.90
21312;DHT22;18076;52.154;10.570;2022-08-20T10:51:09;24.00;99.90
21312;DHT22;18076;52.154;10.570;2022-08-20T10:53:35;24.00;99.90
21312;DHT22;18076;52.154;10.570;2022-08-20T10:56:00;24.00;99.90
21312;DHT22;18076;52.154;10.570;2022-08-20T10:58:26;24.10;99.90
21312;DHT22;18076;52.154;10.570;2022-08-20T11:00:52;24.30;99.90
21312;DHT22;18076;52.154;10.570;2022-08-20T11:03:17;24.30;99.90
21312;DHT22;18076;52.154;10.570;2022-08-20T11:05:43;24.50;99.90
21312;DHT22;18076;52.154;10.570;2022-08-20T11:08:09;24.60;99.90
21312;DHT22;18076;52.154;10.570;2022-08-20T11:10:34;24.70;99.90
21312;DHT22;18076;52.154;10.570;2022-08-20T11:13:01;24.80;99.90
21312;DHT22;18076;52.154;10.570;2022-08-20T11:15:27;24.80;99.90
21312;DHT22;18076;52.154;10.570;2022-08-20T11:17:53;24.80;99.90
21312;DHT22;18076;52.154;10.570;2022-08-20T11:20:20;24.80;99.90
21312;DHT22;18076;52.154;10.570;2022-08-20T11:22:46;24.80;99.90
21312;DHT22;18076;52.154;10.570;2022-08-20T11:25:11;24.60;99.90
21312;DHT22;18076;52.154;10.570;2022-08-20T11:27:41;24.70;99.90
21312;DHT22;18076;52.154;10.570;2022-08-20T11:30:10;24.70;99.90
21312;DHT22;18076;52.154;10.570;2022-08-20T11:32:36;24.70;99.90
21312;DHT22;18076;52.154;10.570;2022-08-20T11:35:01;24.90;99.90
21312;DHT22;18076;52.154;10.570;2022-08-20T11:37:27;25.10;99.90
21312;DHT22;18076;52.154;10.570;2022-08-20T11:39:55;25.20;99.90
21312;DHT22;18076;52.154;10.570;2022-08-20T11:42:20;25.30;99.90
21312;DHT22;18076;52.154;10.570;2022-08-20T11:44:46;25.40;99.90
21312;DHT22;18076;52.154;10.570;2022-08-20T11:47:19;25.60;99.90
21312;DHT22;18076;52.154;10.570;2022-08-20T11:49:45;26.00;99.90
21312;DHT22;18076;52.154;10.570;2022-08-20T11:52:10;26.10;99.90
21312;DHT22;18076;52.154;10.570;2022-08-20T11:54:36;26.50;99.90
21312;DHT22;18076;52.154;10.570;2022-08-20T11:57:05;26.70;99.90
21312;DHT22;18076;52.154;10.570;2022-08-20T11:59:30;26.80;99.90
21312;DHT22;18076;52.154;10.570;2022-08-20T12:01:56;26.70;99.90
21312;DHT22;18076;52.154;10.570;2022-08-20T12:04:23;26.60;99.90
21312;DHT22;18076;52.154;10.570;2022-08-20T12:06:48;26.40;99.90
21312;DHT22;18076;52.154;10.570;2022-08-20T12:09:14;26.30;99.90
21312;DHT22;18076;52.154;10.570;2022-08-20T12:11:39;26.00;99.90
21312;DHT22;18076;52.154;10.570;2022-08-20T12:14:05;26.00;99.90
21312;DHT22;18076;52.154;10.570;2022-08-20T12:16:30;26.20;99.90
21312;DHT22;18076;52.154;10.570;2022-08-20T12:18:56;26.50;99.90
21312;DHT22;18076;52.154;10.570;2022-08-20T12:21:21;26.70;99.90
21312;DHT22;18076;52.154;10.570;2022-08-20T12:23:47;27.00;99.90
21312;DHT22;18076;52.154;10.570;2022-08-20T12:26:12;27.10;99.90
21312;DHT22;18076;52.154;10.570;2022-08-20T12:28:38;27.10;99.90
21312;DHT22;18076;52.154;10.570;2022-08-20T12:31:04;27.10;99.90
21312;DHT22;18076;52.154;10.570;2022-08-20T12:33:29;27.00;99.90
21312;DHT22;18076;52.154;10.570;2022-08-20T12:35:55;27.10;99.90
21312;DHT22;18076;52.154;10.570;2022-08-20T12:38:21;27.10;99.90
21312;DHT22;18076;52.154;10.570;2022-08-20T12:40:46;27.10;99.90
21312;DHT22;18076;52.154;10.570;2022-08-20T12:43:12;27.20;99.90
21312;DHT22;18076;52.154;10.570;2022-08-20T12:45:38;27.00;99.90
21312;DHT22;18076;52.154;10.570;2022-08-20T12:48:07;26.90;99.90
21312;DHT22;18076;52.154;10.570;2022-08-20T12:50:34;26.80;99.90
21312;DHT22;18076;52.154;10.570;2022-08-20T12:53:00;26.70;99.90
21312;DHT22;18076;52.154;10.570;2022-08-20T12:55:27;26.60;99.90
21312;DHT22;18076;52.154;10.570;2022-08-20T12:57:54;26.20;99.90
21312;DHT22;18076;52.154;10.570;2022-08-20T13:00:28;25.70;99.90
21312;DHT22;18076;52.154;10.570;2022-08-20T13:02:55;25.10;99.90
21312;DHT22;18076;52.154;10.570;2022-08-20T13:05:21;24.30;99.90
21312;DHT22;18076;52.154;10.570;2022-08-20T13:07:47;23.50;99.90
21312;DHT22;18076;52.154;10.570;2022-08-20T13:10:15;22.70;99.90
21312;DHT22;18076;52.154;10.570;2022-08-20T13:12:40;22.20;99.90
21312;DHT22;18076;52.154;10.570;2022-08-20T13:15:06;21.80;99.90
21312;DHT22;18076;52.154;10.570;2022-08-20T13:17:32;21.60;99.90
21312;DHT22;18076;52.154;10.570;2022-08-20T13:19:57;21.70;99.90
21312;DHT22;18076;52.154;10.570;2022-08-20T13:22:23;21.80;99.90
21312;DHT22;18076;52.154;10.570;2022-08-20T13:24:48;21.90;99.90
21312;DHT22;18076;52.154;10.570;2022-08-20T13:27:15;21.90;99.90
21312;DHT22;18076;52.154;10.570;2022-08-20T13:29:48;22.00;99.90
21312;DHT22;18076;52.154;10.570;2022-08-20T13:32:14;22.10;99.90
21312;DHT22;18076;52.154;10.570;2022-08-20T13:34:40;22.50;99.90
21312;DHT22;18076;52.154;10.570;2022-08-20T13:39:38;22.70;99.90
21312;DHT22;18076;52.154;10.570;2022-08-20T13:42:04;23.00;99.90
21312;DHT22;18076;52.154;10.570;2022-08-20T13:44:29;23.00;99.90
21312;DHT22;18076;52.154;10.570;2022-08-20T13:46:55;23.00;99.90
21312;DHT22;18076;52.154;10.570;2022-08-20T13:49:20;23.30;99.90
21312;DHT22;18076;52.154;10.570;2022-08-20T13:51:46;23.40;99.90
21312;DHT22;18076;52.154;10.570;2022-08-20T13:54:11;23.50;99.90
21312;DHT22;18076;52.154;10.570;2022-08-20T13:56:37;23.70;99.90
21312;DHT22;18076;52.154;10.570;2022-08-20T13:59:02;23.80;99.90
21312;DHT22;18076;52.154;10.570;2022-08-20T14:01:28;24.10;99.90
21312;DHT22;18076;52.154;10.570;2022-08-20T14:03:54;24.50;99.90
21312;DHT22;18076;52.154;10.570;2022-08-20T14:06:19;24.50;99.90
21312;DHT22;18076;52.154;10.570;2022-08-20T14:08:45;24.60;99.90
21312;DHT22;18076;52.154;10.570;2022-08-20T14:11:10;24.60;99.90
21312;DHT22;18076;52.154;10.570;2022-08-20T14:13:36;24.50;99.90
21312;DHT22;18076;52.154;10.570;2022-08-20T14:16:01;24.40;99.90
21312;DHT22;18076;52.154;10.570;2022-08-20T14:18:27;24.30;99.90
21312;DHT22;18076;52.154;10.570;2022-08-20T14:20:52;24.50;99.90
21312;DHT22;18076;52.154;10.570;2022-08-20T14:23:18;24.70;99.90
21312;DHT22;18076;52.154;10.570;2022-08-20T14:25:44;24.80;99.90
21312;DHT22;18076;52.154;10.570;2022-08-20T14:28:11;24.80;99.90
21312;DHT22;18076;52.154;10.570;2022-08-20T14:30:37;25.20;99.90
21312;DHT22;18076;52.154;10.570;2022-08-20T14:33:03;25.50;99.90
21312;DHT22;18076;52.154;10.570;2022-08-20T14:35:28;25.60;99.90
21312;DHT22;18076;52.154;10.570;2022-08-20T14:37:54;25.60;99.90
21312;DHT22;18076;52.154;10.570;2022-08-20T14:40:22;25.30;99.90
21312;DHT22;18076;52.154;10.570;2022-08-20T14:42:48;25.10;99.90
21312;DHT22;18076;52.154;10.570;2022-08-20T14:45:14;25.10;99.90
21312;DHT22;18076;52.154;10.570;2022-08-20T14:47:45;25.30;99.90
21312;DHT22;18076;52.154;10.570;2022-08-20T14:50:13;25.30;99.90
21312;DHT22;18076;52.154;10.570;2022-08-20T14:52:39;25.50;99.90
21312;DHT22;18076;52.154;10.570;2022-08-20T14:55:06;25.60;99.90
21312;DHT22;18076;52.154;10.570;2022-08-20T14:57:33;25.60;99.90
21312;DHT22;18076;52.154;10.570;2022-08-20T14:59:58;25.50;99.90
21312;DHT22;18076;52.154;10.570;2022-08-20T15:02:24;25.60;99.90
21312;DHT22;18076;52.154;10.570;2022-08-20T15:04:49;25.60;99.90
21312;DHT22;18076;52.154;10.570;2022-08-20T15:07:25;25.80;99.90
21312;DHT22;18076;52.154;10.570;2022-08-20T15:09:51;25.80;99.90
21312;DHT22;18076;52.154;10.570;2022-08-20T15:12:16;25.60;99.90
21312;DHT22;18076;52.154;10.570;2022-08-20T15:14:42;25.10;99.90
21312;DHT22;18076;52.154;10.570;2022-08-20T15:17:16;24.50;99.90
21312;DHT22;18076;52.154;10.570;2022-08-20T15:19:42;24.20;99.90